createdAt,value
2023-03-29T00:02:33.488Z,2.13
2023-03-29T00:05:02.089Z,4.53
2023-03-29T00:07:30.088Z,3.35
2023-03-29T00:09:56.705Z,4.07
2023-03-29T00:12:23.130Z,3.88
2023-03-29T00:14:49.560Z,2.70
2023-03-29T00:17:16.404Z,3.25
2023-03-29T00:19:44.524Z,3.40
2023-03-29T00:22:11.492Z,4.88
2023-03-29T00:24:37.976Z,4.63
2023-03-29T00:27:04.789Z,2.88
2023-03-29T00:29:31.346Z,5.15
2023-03-29T00:31:58.117Z,4.55
2023-03-29T00:34:26.490Z,3.38
2023-03-29T00:36:53.137Z,7.15
2023-03-29T00:39:20.536Z,4.63
2023-03-29T00:41:48.705Z,5.47
2023-03-29T00:44:52.714Z,4.13
2023-03-29T00:47:26.475Z,3.70
2023-03-29T00:49:53.916Z,4.93
2023-03-29T00:52:21.772Z,3.55
2023-03-29T00:54:52.981Z,4.85
2023-03-29T00:57:20.897Z,5.82
2023-03-29T00:59:49.627Z,5.22
2023-03-29T01:02:22.088Z,4.38
2023-03-29T01:07:30.739Z,5.18
2023-03-29T01:10:29.474Z,3.75
2023-03-29T01:13:06.367Z,4.20
2023-03-29T01:15:33.408Z,4.18
2023-03-29T01:18:01.828Z,3.90
2023-03-29T01:20:46.032Z,3.58
2023-03-29T01:23:22.256Z,4.18
2023-03-29T01:26:10.024Z,4.03
2023-03-29T01:28:45.505Z,3.40
2023-03-29T01:31:19.684Z,4.68
2023-03-29T01:34:00.975Z,4.53
2023-03-29T01:36:35.004Z,3.60
2023-03-29T01:39:06.950Z,3.42
2023-03-29T01:41:52.243Z,3.17
2023-03-29T01:44:23.970Z,5.68
2023-03-29T01:49:32.315Z,3.65
2023-03-29T01:52:05.363Z,4.78
2023-03-29T01:54:38.133Z,5.55
2023-03-29T01:57:06.887Z,4.10
2023-03-29T01:59:36.299Z,4.15
2023-03-29T02:02:08.128Z,3.85
2023-03-29T02:04:40.364Z,4.30
2023-03-29T02:07:09.012Z,6.18
2023-03-29T02:09:37.782Z,4.55
2023-03-29T02:12:07.081Z,6.45
2023-03-29T02:14:33.586Z,4.28
2023-03-29T02:17:18.213Z,3.63
2023-03-29T02:19:51.550Z,5.40
2023-03-29T02:22:24.326Z,6.20
2023-03-29T02:24:54.799Z,5.03
2023-03-29T02:27:21.766Z,3.35
2023-03-29T02:29:48.325Z,4.85
2023-03-29T02:32:42.260Z,3.90
2023-03-29T02:35:14.506Z,3.75
2023-03-29T02:37:44.442Z,4.00
2023-03-29T02:40:13.089Z,6.35
2023-03-29T02:42:42.488Z,4.47
2023-03-29T02:45:12.761Z,3.72
2023-03-29T02:47:44.336Z,3.90
2023-03-29T02:50:11.943Z,5.13
2023-03-29T02:52:43.008Z,4.32
2023-03-29T02:55:15.770Z,4.32
2023-03-29T02:57:43.812Z,5.57
2023-03-29T03:00:11.803Z,5.07
2023-03-29T03:02:38.324Z,3.33
2023-03-29T03:05:06.656Z,5.22
2023-03-29T03:07:33.752Z,3.67
2023-03-29T03:10:00.365Z,5.05
2023-03-29T03:12:27.098Z,4.22
2023-03-29T03:14:53.594Z,4.20
2023-03-29T03:17:20.186Z,4.15
2023-03-29T03:19:47.454Z,5.63
2023-03-29T03:22:14.848Z,5.78
2023-03-29T03:24:42.652Z,3.83
2023-03-29T03:27:10.790Z,4.00
2023-03-29T03:29:38.553Z,3.50
2023-03-29T03:32:43.579Z,9.88
2023-03-29T03:35:49.213Z,4.45
2023-03-29T03:40:53.656Z,5.47
2023-03-29T03:43:20.110Z,5.93
2023-03-29T03:45:47.958Z,4.72
2023-03-29T03:48:17.512Z,5.53
2023-03-29T03:50:55.215Z,4.63
2023-03-29T03:53:23.522Z,5.47
2023-03-29T03:56:20.451Z,5.25
2023-03-29T03:59:07.155Z,6.47
2023-03-29T04:01:50.641Z,4.80
2023-03-29T04:04:20.594Z,5.32
2023-03-29T04:07:02.652Z,5.18
2023-03-29T04:09:48.811Z,6.43
2023-03-29T04:12:33.899Z,5.95
2023-03-29T04:15:01.198Z,3.03
2023-03-29T04:17:28.978Z,5.35
2023-03-29T04:19:58.259Z,4.38
2023-03-29T04:22:27.220Z,5.10
2023-03-29T04:24:53.873Z,4.35
2023-03-29T04:27:38.927Z,4.20
2023-03-29T04:30:13.415Z,4.90
2023-03-29T04:33:06.094Z,5.53
2023-03-29T04:35:34.254Z,5.05
2023-03-29T04:38:00.987Z,4.88
2023-03-29T04:40:28.985Z,4.07
2023-03-29T04:43:18.363Z,4.53
2023-03-29T04:45:55.154Z,3.22
2023-03-29T04:48:47.213Z,7.13
2023-03-29T04:51:14.111Z,7.15
2023-03-29T04:53:41.076Z,5.38
2023-03-29T04:56:08.095Z,5.07
2023-03-29T04:59:00.545Z,4.55
2023-03-29T05:01:27.043Z,3.22
2023-03-29T05:03:57.468Z,4.07
2023-03-29T05:06:29.272Z,4.28
2023-03-29T05:08:56.118Z,5.43
2023-03-29T05:11:26.954Z,4.93
2023-03-29T05:13:55.795Z,3.42
2023-03-29T05:16:24.614Z,3.97
2023-03-29T05:18:55.281Z,4.55
2023-03-29T05:21:22.310Z,4.10
2023-03-29T05:23:49.461Z,5.60
2023-03-29T05:26:16.156Z,3.83
2023-03-29T05:28:50.902Z,3.80
2023-03-29T05:31:17.558Z,5.20
2023-03-29T05:33:48.319Z,7.38
2023-03-29T05:36:16.975Z,5.82
2023-03-29T05:38:49.828Z,5.38
2023-03-29T05:41:20.654Z,5.88
2023-03-29T05:43:47.056Z,6.68
2023-03-29T05:46:13.717Z,3.78
2023-03-29T05:48:47.471Z,4.32
2023-03-29T05:51:15.017Z,4.35
2023-03-29T05:53:41.643Z,4.10
2023-03-29T05:56:08.780Z,4.07
2023-03-29T05:58:36.249Z,3.63
2023-03-29T06:01:05.179Z,5.65
2023-03-29T06:03:49.506Z,3.38
2023-03-29T06:06:18.414Z,8.15
2023-03-29T06:08:45.250Z,4.03
2023-03-29T06:11:24.149Z,4.60
2023-03-29T06:14:16.627Z,7.03
2023-03-29T06:16:50.082Z,5.32
2023-03-29T06:19:17.363Z,5.90
2023-03-29T06:21:43.916Z,3.40
2023-03-29T06:24:13.996Z,3.80
2023-03-29T06:26:46.406Z,4.35
2023-03-29T06:29:12.900Z,2.92
2023-03-29T06:31:40.934Z,8.38
2023-03-29T06:34:09.591Z,4.38
2023-03-29T06:36:58.696Z,3.42
2023-03-29T06:39:26.895Z,5.57
2023-03-29T06:42:20.162Z,4.20
2023-03-29T06:45:08.683Z,4.03
2023-03-29T06:47:36.698Z,7.03
2023-03-29T06:50:03.496Z,3.15
2023-03-29T06:52:56.244Z,6.43
2023-03-29T06:55:24.481Z,3.65
2023-03-29T06:57:52.647Z,5.10
2023-03-29T07:00:27.665Z,6.05
2023-03-29T07:03:19.962Z,6.75
2023-03-29T07:05:51.885Z,4.63
2023-03-29T07:08:21.393Z,3.77
2023-03-29T07:10:59.304Z,3.40
2023-03-29T07:13:46.153Z,4.60
2023-03-29T07:16:17.464Z,4.75
2023-03-29T07:18:49.921Z,5.65
2023-03-29T07:21:37.746Z,4.40
2023-03-29T07:24:06.590Z,5.57
2023-03-29T07:26:34.611Z,4.63
2023-03-29T07:29:01.249Z,5.88
2023-03-29T07:31:29.520Z,3.25
2023-03-29T07:34:10.863Z,5.45
2023-03-29T07:36:38.862Z,5.43
2023-03-29T07:39:06.859Z,4.57
2023-03-29T07:41:36.039Z,29.15
2023-03-29T07:44:11.734Z,100.28
2023-03-29T07:46:38.683Z,117.22
2023-03-29T07:49:06.777Z,86.88
2023-03-29T07:51:33.252Z,33.85
2023-03-29T07:54:07.747Z,15.38
2023-03-29T07:56:40.309Z,15.20
2023-03-29T07:59:26.007Z,6.75
2023-03-29T08:02:02.916Z,7.15
2023-03-29T08:04:37.393Z,6.20
2023-03-29T08:07:19.867Z,4.13
2023-03-29T08:10:05.611Z,5.82
2023-03-29T08:12:50.499Z,4.35
2023-03-29T08:15:19.714Z,3.55
2023-03-29T08:17:46.343Z,4.72
2023-03-29T08:20:16.232Z,8.60
2023-03-29T08:22:45.773Z,4.57
2023-03-29T08:25:32.883Z,6.57
2023-03-29T08:27:59.402Z,5.18
2023-03-29T08:30:37.390Z,3.05
2023-03-29T08:33:05.209Z,3.22
2023-03-29T08:35:32.101Z,4.25
2023-03-29T08:38:19.900Z,7.05
2023-03-29T08:40:48.708Z,3.70
2023-03-29T08:43:39.566Z,3.55
2023-03-29T08:46:30.893Z,3.50
2023-03-29T08:49:10.689Z,2.58
2023-03-29T08:51:44.192Z,3.53
2023-03-29T08:54:24.384Z,3.58
2023-03-29T08:57:23.512Z,3.33
2023-03-29T08:59:58.361Z,2.88
2023-03-29T09:02:27.724Z,5.10
2023-03-29T09:05:15.114Z,2.45
2023-03-29T09:07:44.952Z,5.07
2023-03-29T09:10:16.833Z,2.78
2023-03-29T09:13:06.336Z,5.47
2023-03-29T09:16:01.353Z,3.67
2023-03-29T09:18:48.358Z,2.72
2023-03-29T09:21:19.487Z,5.28
2023-03-29T09:27:05.125Z,2.95
2023-03-29T09:29:55.489Z,5.28
2023-03-29T09:32:42.908Z,7.03
2023-03-29T09:35:35.680Z,5.63
2023-03-29T09:38:03.876Z,3.40
2023-03-29T09:40:39.829Z,2.95
2023-03-29T09:43:19.129Z,4.38
2023-03-29T09:45:53.053Z,3.40
2023-03-29T09:48:20.704Z,4.25
2023-03-29T09:50:52.959Z,2.95
2023-03-29T09:53:21.528Z,3.20
2023-03-29T09:56:08.379Z,6.47
2023-03-29T09:58:46.740Z,3.88
2023-03-29T10:01:17.522Z,5.07
2023-03-29T10:03:51.405Z,3.00
2023-03-29T10:06:20.242Z,2.38
2023-03-29T10:08:58.714Z,3.65
2023-03-29T10:11:36.936Z,3.10
2023-03-29T10:14:07.235Z,5.53
2023-03-29T10:16:38.001Z,2.33
2023-03-29T10:19:19.283Z,3.30
2023-03-29T10:21:52.770Z,2.72
2023-03-29T10:24:24.507Z,3.95
2023-03-29T10:26:57.939Z,3.53
2023-03-29T10:29:26.067Z,3.85
2023-03-29T10:31:53.270Z,4.57
2023-03-29T10:34:25.140Z,3.13
2023-03-29T10:36:58.825Z,3.28
2023-03-29T10:39:29.183Z,2.10
2023-03-29T11:07:27.831Z,2.65
2023-03-29T13:08:38.118Z,4.37
2023-03-29T13:11:06.477Z,2.13
2023-03-29T13:13:36.654Z,2.90
2023-03-29T13:16:15.690Z,2.88
2023-03-29T13:19:07.530Z,4.50
2023-03-29T13:24:35.671Z,3.35
2023-03-29T13:27:04.786Z,3.15
2023-03-29T13:29:48.053Z,2.42
2023-03-29T13:32:46.378Z,2.90
2023-03-29T13:35:20.260Z,3.10
2023-03-29T13:38:21.480Z,2.20
2023-03-29T13:40:53.974Z,3.88
2023-03-29T13:43:44.534Z,2.97
2023-03-29T13:46:21.197Z,3.47
2023-03-29T13:48:57.907Z,3.53
2023-03-29T13:51:32.927Z,4.63
2023-03-29T13:59:50.418Z,3.92
2023-03-29T14:02:25.397Z,3.72
2023-03-29T14:04:53.370Z,2.17
2023-03-29T14:07:26.092Z,2.20
2023-03-29T14:09:54.994Z,2.92
2023-03-29T14:12:22.525Z,2.85
2023-03-29T14:14:58.817Z,3.83
2023-03-29T14:17:26.892Z,2.55
2023-03-29T14:19:57.572Z,4.68
2023-03-29T14:22:24.223Z,2.60
2023-03-29T14:24:54.731Z,2.90
2023-03-29T14:27:21.961Z,3.80
2023-03-29T14:29:51.203Z,2.95
2023-03-29T14:32:20.460Z,4.72
2023-03-29T14:34:50.769Z,3.92
2023-03-29T14:37:22.701Z,2.47
2023-03-29T14:39:50.088Z,2.83
2023-03-29T14:42:24.084Z,3.17
2023-03-29T14:44:51.050Z,1.90
2023-03-29T14:47:29.526Z,3.28
2023-03-29T14:50:00.531Z,4.05
2023-03-29T14:52:30.267Z,3.63
2023-03-29T14:55:00.041Z,4.00
2023-03-29T14:57:31.959Z,2.42
2023-03-29T15:00:24.552Z,3.97
2023-03-29T15:02:59.188Z,2.67
2023-03-29T15:05:30.247Z,3.65
2023-03-29T15:07:56.785Z,3.33
2023-03-29T15:10:23.621Z,5.10
2023-03-29T15:12:51.074Z,4.85
2023-03-29T15:15:17.949Z,6.30
2023-03-29T15:17:52.115Z,4.33
2023-03-29T15:20:21.249Z,3.72
2023-03-29T15:22:58.774Z,4.32
2023-03-29T15:25:34.631Z,7.07
2023-03-29T15:28:01.785Z,5.88
2023-03-29T15:30:35.811Z,6.60
2023-03-29T15:33:26.055Z,7.35
2023-03-29T15:35:53.725Z,3.50
2023-03-29T15:38:25.429Z,3.83
2023-03-29T15:41:00.802Z,6.60
2023-03-29T15:43:27.509Z,3.47
2023-03-29T15:45:54.025Z,5.65
2023-03-29T15:48:23.636Z,3.50
2023-03-29T15:50:50.148Z,6.07
2023-03-29T15:53:17.123Z,5.45
2023-03-29T15:56:00.096Z,8.45
2023-03-29T15:58:30.546Z,10.25
2023-03-29T16:01:16.053Z,6.72
2023-03-29T16:03:46.999Z,6.25
2023-03-29T16:06:14.504Z,7.47
2023-03-29T16:08:41.773Z,5.45
2023-03-29T16:11:08.236Z,6.80
2023-03-29T16:13:34.876Z,5.38
2023-03-29T16:16:01.758Z,3.83
2023-03-29T16:18:28.499Z,2.90
2023-03-29T16:20:55.010Z,1.95
2023-03-29T16:23:21.515Z,4.95
2023-03-29T16:25:48.094Z,2.28
2023-03-29T16:28:14.533Z,4.15
2023-03-29T16:30:41.238Z,5.05
2023-03-29T16:33:08.546Z,3.03
2023-03-29T16:35:38.069Z,3.92
2023-03-29T16:38:04.759Z,4.28
2023-03-29T16:40:31.601Z,2.42
2023-03-29T16:42:58.114Z,5.55
2023-03-29T16:45:24.574Z,5.75
2023-03-29T16:47:51.358Z,10.15
2023-03-29T16:50:19.678Z,10.18
2023-03-29T16:52:48.287Z,8.05
2023-03-29T16:55:18.782Z,9.73
2023-03-29T16:57:46.755Z,6.27
2023-03-29T17:00:15.789Z,9.93
2023-03-29T17:02:49.429Z,7.90
2023-03-29T17:05:17.512Z,5.97
2023-03-29T17:07:44.739Z,7.82
2023-03-29T17:10:12.409Z,7.43
2023-03-29T17:12:39.655Z,7.90
2023-03-29T17:15:07.808Z,5.95
2023-03-29T17:17:34.771Z,5.47
2023-03-29T17:20:01.312Z,10.38
2023-03-29T17:22:27.756Z,6.68
2023-03-29T17:24:54.320Z,8.25
2023-03-29T17:27:21.175Z,9.32
2023-03-29T17:29:47.922Z,8.20
2023-03-29T17:32:14.477Z,4.60
2023-03-29T17:34:41.592Z,6.25
2023-03-29T17:37:09.210Z,7.10
2023-03-29T17:39:37.541Z,4.55
2023-03-29T17:42:05.531Z,4.93
2023-03-29T17:44:33.167Z,5.93
2023-03-29T17:47:00.495Z,4.85
2023-03-29T17:49:26.977Z,8.10
2023-03-29T17:51:53.379Z,7.68
2023-03-29T17:54:19.854Z,7.80
2023-03-29T17:56:46.369Z,4.75
2023-03-29T17:59:12.840Z,7.32
2023-03-29T18:01:39.592Z,5.47
2023-03-29T18:04:06.268Z,10.10
2023-03-29T18:06:32.823Z,6.72
2023-03-29T18:09:01.388Z,5.40
2023-03-29T18:11:28.394Z,6.25
2023-03-29T18:13:59.165Z,7.97
2023-03-29T18:16:26.050Z,8.80
2023-03-29T18:18:52.715Z,8.30
2023-03-29T18:21:19.168Z,6.63
2023-03-29T18:23:47.114Z,8.18
2023-03-29T18:26:15.522Z,8.82
2023-03-29T18:28:43.794Z,10.02
2023-03-29T18:31:10.463Z,11.60
2023-03-29T18:33:37.024Z,9.45
2023-03-29T18:36:08.446Z,9.18
2023-03-29T18:38:36.489Z,10.25
2023-03-29T18:41:04.099Z,7.53
2023-03-29T18:43:32.396Z,9.73
2023-03-29T18:45:58.967Z,9.50
2023-03-29T18:48:26.042Z,7.53
2023-03-29T18:50:52.563Z,10.73
2023-03-29T18:53:19.487Z,9.02
2023-03-29T18:55:46.001Z,10.45
2023-03-29T18:58:14.103Z,11.20
2023-03-29T19:00:41.872Z,9.13
2023-03-29T19:03:09.102Z,11.40
2023-03-29T19:05:39.629Z,7.05
2023-03-29T19:08:08.842Z,6.13
2023-03-29T19:10:36.733Z,8.32
2023-03-29T19:13:04.381Z,7.07
2023-03-29T19:15:31.400Z,6.85
2023-03-29T19:17:57.956Z,7.00
2023-03-29T19:20:25.460Z,5.72
2023-03-29T19:22:53.413Z,6.95
2023-03-29T19:25:20.190Z,10.70
2023-03-29T19:27:46.653Z,11.18
2023-03-29T19:30:14.284Z,5.95
2023-03-29T19:32:40.938Z,5.78
2023-03-29T19:35:09.477Z,6.45
2023-03-29T19:37:36.185Z,6.82
2023-03-29T19:40:06.204Z,6.78
2023-03-29T19:42:35.986Z,7.40
2023-03-29T19:45:03.902Z,7.30
2023-03-29T19:47:31.045Z,7.78
2023-03-29T19:49:58.555Z,7.75
2023-03-29T19:52:27.728Z,5.50
2023-03-29T19:54:58.494Z,5.65
2023-03-29T19:57:25.311Z,6.50
2023-03-29T19:59:53.840Z,5.32
2023-03-29T20:02:20.450Z,6.88
2023-03-29T20:04:46.995Z,5.13
2023-03-29T20:07:13.631Z,6.90
2023-03-29T20:09:43.294Z,5.60
2023-03-29T20:12:11.621Z,5.93
2023-03-29T20:14:40.133Z,5.90
2023-03-29T20:17:07.152Z,7.57
2023-03-29T20:19:36.415Z,4.90
2023-03-29T20:22:04.356Z,6.28
2023-03-29T20:24:32.532Z,5.30
2023-03-29T20:26:59.255Z,5.97
2023-03-29T20:29:25.848Z,4.28
2023-03-29T20:31:52.431Z,5.80
2023-03-29T20:34:19.043Z,7.47
2023-03-29T20:36:46.704Z,5.35
2023-03-29T20:39:17.009Z,8.48
2023-03-29T20:41:47.385Z,6.22
2023-03-29T20:44:16.638Z,6.28
2023-03-29T20:46:54.251Z,6.25
2023-03-29T20:49:26.219Z,10.35
2023-03-29T20:51:58.435Z,7.53
2023-03-29T20:54:25.873Z,9.75
2023-03-29T20:56:54.401Z,8.30
2023-03-29T20:59:22.653Z,4.85
2023-03-29T21:01:50.109Z,4.82
2023-03-29T21:04:17.642Z,8.35
2023-03-29T21:06:45.601Z,5.43
2023-03-29T21:09:13.567Z,4.05
2023-03-29T21:11:40.185Z,3.50
2023-03-29T21:14:06.793Z,6.05
2023-03-29T21:16:33.248Z,4.65
2023-03-29T21:18:59.734Z,3.90
2023-03-29T21:21:26.249Z,5.18
2023-03-29T21:23:52.886Z,5.05
2023-03-29T21:26:19.288Z,7.20
2023-03-29T21:28:45.910Z,14.32
2023-03-29T21:31:12.429Z,7.13
2023-03-29T21:33:39.117Z,5.43
2023-03-29T21:36:06.133Z,4.60
2023-03-29T21:38:32.682Z,4.75
2023-03-29T21:41:00.244Z,4.93
2023-03-29T21:43:26.793Z,5.53
2023-03-29T21:45:53.232Z,8.68
2023-03-29T21:48:19.701Z,6.55
2023-03-29T21:50:50.085Z,7.20
2023-03-29T21:53:16.788Z,9.38
2023-03-29T21:55:43.227Z,7.82
2023-03-29T21:58:09.821Z,6.22
2023-03-29T22:00:36.317Z,5.88
2023-03-29T22:03:02.932Z,10.02
2023-03-29T22:05:29.398Z,6.15
2023-03-29T22:07:58.564Z,4.95
2023-03-29T22:10:25.587Z,7.07
2023-03-29T22:12:52.559Z,6.20
2023-03-29T22:15:20.611Z,6.55
2023-03-29T22:17:48.043Z,8.27
2023-03-29T22:20:14.835Z,7.97
2023-03-29T22:22:46.803Z,5.75
2023-03-29T22:25:13.414Z,6.82
2023-03-29T22:27:39.920Z,6.05
2023-03-29T22:30:07.060Z,4.93
2023-03-29T22:32:34.666Z,5.00
2023-03-29T22:35:01.164Z,5.13
2023-03-29T22:37:27.819Z,9.32
2023-03-29T22:39:54.273Z,10.18
2023-03-29T22:42:20.992Z,5.30
2023-03-29T22:44:47.484Z,9.98
2023-03-29T22:47:14.292Z,7.30
2023-03-29T22:49:41.288Z,6.60
2023-03-29T22:52:07.965Z,9.18
2023-03-29T22:54:34.407Z,10.75
2023-03-29T22:57:00.863Z,7.30
2023-03-29T22:59:27.456Z,7.47
2023-03-29T23:01:54.066Z,6.68
2023-03-29T23:04:20.653Z,9.60
2023-03-29T23:06:47.091Z,9.68
2023-03-29T23:09:15.848Z,7.97
2023-03-29T23:11:42.876Z,9.75
2023-03-29T23:14:09.539Z,11.60
2023-03-29T23:16:36.919Z,10.32
2023-03-29T23:19:03.461Z,9.30
2023-03-29T23:21:29.993Z,8.60
2023-03-29T23:23:56.464Z,5.90
2023-03-29T23:26:23.111Z,7.47
2023-03-29T23:28:51.473Z,9.57
2023-03-29T23:31:18.436Z,11.48
2023-03-29T23:33:45.476Z,9.15
2023-03-29T23:36:14.922Z,8.38
2023-03-29T23:38:43.672Z,9.63
2023-03-29T23:41:12.565Z,9.98
2023-03-29T23:43:41.718Z,7.10
2023-03-29T23:46:10.782Z,8.98
2023-03-29T23:48:38.496Z,11.40
2023-03-29T23:51:07.740Z,12.52
2023-03-29T23:53:34.208Z,7.88
2023-03-29T23:56:03.312Z,11.80
2023-03-29T23:58:35.945Z,8.38
